createdAt,value
2023-12-05T00:01:35.578Z,44.46
2023-12-05T00:04:03.399Z,44.36
2023-12-05T00:06:31.445Z,44.19
2023-12-05T00:08:59.268Z,44.04
2023-12-05T00:11:27.032Z,43.87
2023-12-05T00:13:54.639Z,43.88
2023-12-05T00:16:22.448Z,43.81
2023-12-05T00:18:51.692Z,43.76
2023-12-05T00:21:19.452Z,43.83
2023-12-05T00:23:47.181Z,43.94
2023-12-05T00:26:14.834Z,44.07
2023-12-05T00:28:42.503Z,44.04
2023-12-05T00:31:10.572Z,44.09
2023-12-05T00:33:38.908Z,44.06
2023-12-05T00:36:07.756Z,43.99
2023-12-05T00:38:35.423Z,43.87
2023-12-05T00:41:03.169Z,43.74
2023-12-05T00:43:31.034Z,43.50
2023-12-05T00:45:58.986Z,43.34
2023-12-05T00:48:26.892Z,43.42
2023-12-05T00:50:54.631Z,43.46
2023-12-05T00:53:22.390Z,43.54
2023-12-05T00:55:50.152Z,43.88
2023-12-05T00:58:18.132Z,44.02
2023-12-05T01:00:46.133Z,44.03
2023-12-05T01:03:14.013Z,44.03
2023-12-05T01:05:42.241Z,44.05
2023-12-05T01:08:10.120Z,44.05
2023-12-05T01:10:37.893Z,44.11
2023-12-05T01:13:07.530Z,44.07
2023-12-05T01:15:35.326Z,44.04
2023-12-05T01:18:04.757Z,44.11
2023-12-05T01:20:32.914Z,44.07
2023-12-05T01:23:01.496Z,44.21
2023-12-05T01:28:53.654Z,44.45
2023-12-05T01:31:21.515Z,44.50
2023-12-05T01:33:49.441Z,44.51
2023-12-05T01:36:17.283Z,44.53
2023-12-05T01:38:45.014Z,44.51
2023-12-05T01:41:12.877Z,44.69
2023-12-05T01:43:40.745Z,44.72
2023-12-05T01:46:08.521Z,44.45
2023-12-05T01:48:36.429Z,44.64
2023-12-05T01:51:04.861Z,44.54
2023-12-05T01:53:32.716Z,44.55
2023-12-05T01:56:00.586Z,44.42
2023-12-05T01:58:28.244Z,44.46
2023-12-05T02:00:57.613Z,44.47
2023-12-05T02:03:26.348Z,44.51
2023-12-05T02:05:55.032Z,44.31
2023-12-05T02:08:23.493Z,44.60
2023-12-05T02:10:51.187Z,44.59
2023-12-05T02:13:19.133Z,44.58
2023-12-05T02:15:48.440Z,44.21
2023-12-05T02:18:20.469Z,44.17
2023-12-05T02:21:11.422Z,44.23
2023-12-05T02:24:02.478Z,44.18
2023-12-05T02:26:53.437Z,43.91
2023-12-05T02:29:21.207Z,43.45
2023-12-05T02:31:49.148Z,43.17
2023-12-05T02:34:16.958Z,42.96
2023-12-05T02:37:22.381Z,42.57
2023-12-05T02:39:55.685Z,42.56
2023-12-05T02:42:24.659Z,42.53
2023-12-05T02:44:53.225Z,42.55
2023-12-05T02:47:22.018Z,42.69
2023-12-05T02:49:49.673Z,42.85
2023-12-05T02:52:22.052Z,42.72
2023-12-05T02:54:50.017Z,42.28
2023-12-05T02:57:17.755Z,42.44
2023-12-05T02:59:45.454Z,42.79
2023-12-05T03:02:13.307Z,42.81
2023-12-05T03:04:44.457Z,42.50
2023-12-05T03:07:12.588Z,42.39
2023-12-05T03:09:40.296Z,42.25
2023-12-05T03:12:08.351Z,42.21
2023-12-05T03:14:36.040Z,41.78
2023-12-05T03:17:04.119Z,41.59
2023-12-05T03:19:32.008Z,41.39
2023-12-05T03:21:59.952Z,41.09
2023-12-05T03:24:27.930Z,41.13
2023-12-05T03:26:56.269Z,41.17
2023-12-05T03:29:24.158Z,41.25
2023-12-05T03:31:51.801Z,41.09
2023-12-05T03:34:19.785Z,41.20
2023-12-05T03:36:47.446Z,41.20
2023-12-05T03:39:15.929Z,41.42
2023-12-05T03:41:48.811Z,41.14
2023-12-05T03:44:16.653Z,40.97
2023-12-05T03:46:44.425Z,41.35
2023-12-05T03:51:39.766Z,40.83
2023-12-05T03:54:09.243Z,40.70
2023-12-05T03:56:37.218Z,40.60
2023-12-05T03:59:04.816Z,40.60
2023-12-05T04:01:33.375Z,40.49
2023-12-05T04:04:01.101Z,40.23
2023-12-05T04:06:29.066Z,39.98
2023-12-05T04:08:57.360Z,39.87
2023-12-05T04:11:32.340Z,39.72
2023-12-05T04:14:00.563Z,39.41
2023-12-05T04:16:28.352Z,39.58
2023-12-05T04:18:56.283Z,39.49
2023-12-05T04:21:27.750Z,39.59
2023-12-05T04:23:55.611Z,39.75
2023-12-05T04:26:23.280Z,40.01
2023-12-05T04:28:51.058Z,39.78
2023-12-05T04:31:18.803Z,39.70
2023-12-05T04:33:47.070Z,39.56
2023-12-05T04:36:17.423Z,39.73
2023-12-05T04:38:45.072Z,39.77
2023-12-05T04:41:12.730Z,39.91
2023-12-05T04:43:40.501Z,39.81
2023-12-05T04:46:08.373Z,39.90
2023-12-05T04:48:36.136Z,40.02
2023-12-05T04:51:04.090Z,39.81
2023-12-05T04:53:31.746Z,39.56
2023-12-05T04:55:59.714Z,39.68
2023-12-05T04:58:29.481Z,39.61
2023-12-05T05:00:58.777Z,39.91
2023-12-05T05:03:26.745Z,39.95
2023-12-05T05:05:54.579Z,39.96
2023-12-05T05:08:22.436Z,39.93
2023-12-05T05:10:50.406Z,40.08
2023-12-05T05:13:18.066Z,40.06
2023-12-05T05:15:45.781Z,40.16
2023-12-05T05:18:13.509Z,40.00
2023-12-05T05:20:41.780Z,39.84
2023-12-05T05:23:10.919Z,39.51
2023-12-05T05:25:38.721Z,39.53
2023-12-05T05:28:06.477Z,39.60
2023-12-05T05:30:34.165Z,39.39
2023-12-05T05:33:02.266Z,39.58
2023-12-05T05:35:30.084Z,39.65
2023-12-05T05:37:57.854Z,39.55
2023-12-05T05:40:26.841Z,39.72
2023-12-05T05:42:54.592Z,40.07
2023-12-05T05:45:22.738Z,40.26
2023-12-05T05:47:51.208Z,40.29
2023-12-05T05:50:21.060Z,39.68
2023-12-05T05:52:48.938Z,39.71
2023-12-05T05:55:16.803Z,39.85
2023-12-05T05:57:44.634Z,40.02
2023-12-05T06:00:13.531Z,39.94
2023-12-05T06:02:41.225Z,39.83
2023-12-05T06:05:09.051Z,39.62
2023-12-05T06:07:37.833Z,39.27
2023-12-05T06:10:06.521Z,39.09
2023-12-05T06:12:34.663Z,39.17
2023-12-05T06:15:02.390Z,39.23
2023-12-05T06:17:30.079Z,39.43
2023-12-05T06:19:57.809Z,39.10
2023-12-05T06:22:26.026Z,39.17
2023-12-05T06:24:53.927Z,39.11
2023-12-05T06:27:22.096Z,39.06
2023-12-05T06:29:49.801Z,38.99
2023-12-05T06:32:17.493Z,39.13
2023-12-05T06:34:45.352Z,38.76
2023-12-05T06:37:13.385Z,38.74
2023-12-05T06:39:41.085Z,38.97
2023-12-05T06:42:08.713Z,39.07
2023-12-05T06:44:36.373Z,39.23
2023-12-05T06:50:28.318Z,39.34
2023-12-05T06:53:01.519Z,39.41
2023-12-05T06:55:29.583Z,39.36
2023-12-05T06:57:57.290Z,39.51
2023-12-05T07:00:25.650Z,39.68
2023-12-05T07:02:53.794Z,40.10
2023-12-05T07:05:21.794Z,39.98
2023-12-05T07:07:49.747Z,39.73
2023-12-05T07:10:17.408Z,39.91
2023-12-05T07:12:45.104Z,39.99
2023-12-05T07:15:12.871Z,39.85
2023-12-05T07:17:40.725Z,40.15
2023-12-05T07:20:08.881Z,39.94
2023-12-05T07:22:37.350Z,39.82
2023-12-05T07:25:05.819Z,39.60
2023-12-05T07:27:33.836Z,39.79
2023-12-05T07:30:01.759Z,39.83
2023-12-05T07:32:29.517Z,39.90
2023-12-05T07:34:57.561Z,39.70
2023-12-05T07:37:25.369Z,39.90
2023-12-05T07:39:53.506Z,39.46
2023-12-05T07:42:21.097Z,39.25
2023-12-05T07:44:48.958Z,39.60
2023-12-05T07:47:16.811Z,39.77
2023-12-05T07:49:47.441Z,39.67
2023-12-05T07:52:15.823Z,39.71
2023-12-05T07:54:43.514Z,39.71
2023-12-05T07:57:11.469Z,39.51
2023-12-05T07:59:39.108Z,39.76
2023-12-05T08:02:07.228Z,39.77
2023-12-05T08:04:36.407Z,39.45
2023-12-05T08:07:04.773Z,39.45
2023-12-05T08:09:32.685Z,39.45
2023-12-05T08:12:01.235Z,39.30
2023-12-05T08:14:28.973Z,39.62
2023-12-05T08:16:57.171Z,39.47
2023-12-05T08:19:25.016Z,39.20
2023-12-05T08:21:53.271Z,39.21
2023-12-05T08:24:21.075Z,39.33
2023-12-05T08:26:49.442Z,40.19
2023-12-05T08:29:18.014Z,40.41
2023-12-05T08:31:46.190Z,40.61
2023-12-05T08:34:14.707Z,40.91
2023-12-05T08:36:48.118Z,40.80
2023-12-05T08:39:15.850Z,40.58
2023-12-05T08:41:43.990Z,40.23
2023-12-05T08:44:11.860Z,40.41
2023-12-05T08:46:39.639Z,40.57
2023-12-05T08:49:07.390Z,40.47
2023-12-05T08:51:35.198Z,40.39
2023-12-05T08:54:03.280Z,39.99
2023-12-05T08:56:31.013Z,39.72
2023-12-05T08:58:58.756Z,39.57
2023-12-05T09:01:27.149Z,39.43
2023-12-05T09:03:55.659Z,39.68
2023-12-05T09:06:23.907Z,39.85
2023-12-05T09:08:51.765Z,40.00
2023-12-05T09:11:19.445Z,39.68
2023-12-05T09:13:47.194Z,39.96
2023-12-05T09:16:14.868Z,39.75
2023-12-05T09:18:43.411Z,39.80
2023-12-05T09:21:11.289Z,39.71
2023-12-05T09:23:39.577Z,39.56
2023-12-05T09:26:07.531Z,39.98
2023-12-05T09:28:36.115Z,39.86
2023-12-05T09:31:05.724Z,39.98
2023-12-05T09:33:34.077Z,39.53
2023-12-05T09:36:01.882Z,39.44
2023-12-05T09:38:29.630Z,39.46
2023-12-05T09:40:57.634Z,39.56
2023-12-05T09:43:25.805Z,39.26
2023-12-05T09:46:02.235Z,39.10
2023-12-05T09:48:33.668Z,38.98
2023-12-05T09:51:01.445Z,38.92
2023-12-05T09:53:29.535Z,38.93
2023-12-05T09:55:57.205Z,39.10
2023-12-05T09:58:25.008Z,39.19
2023-12-05T10:00:53.582Z,38.81
2023-12-05T10:03:21.569Z,38.61
2023-12-05T10:05:50.315Z,38.89
2023-12-05T10:08:18.044Z,38.99
2023-12-05T10:10:46.745Z,38.99
2023-12-05T10:13:14.534Z,39.03
2023-12-05T10:15:44.016Z,38.93
2023-12-05T10:18:12.038Z,38.78
2023-12-05T10:20:41.036Z,38.88
2023-12-05T10:23:08.950Z,39.30
2023-12-05T10:25:36.719Z,39.51
2023-12-05T10:28:06.791Z,39.57
2023-12-05T10:30:36.195Z,39.99
2023-12-05T10:33:11.820Z,40.60
2023-12-05T10:35:42.321Z,40.74
2023-12-05T10:38:16.359Z,40.79
2023-12-05T10:40:57.107Z,41.01
2023-12-05T10:43:25.761Z,41.01
2023-12-05T10:45:54.106Z,41.24
2023-12-05T10:48:23.051Z,41.33
2023-12-05T10:50:52.668Z,41.33
2023-12-05T10:53:20.847Z,41.36
2023-12-05T10:55:48.773Z,41.47
2023-12-05T10:58:16.855Z,41.77
2023-12-05T11:00:44.965Z,41.81
2023-12-05T11:03:14.238Z,41.83
2023-12-05T11:05:42.360Z,41.84
2023-12-05T11:08:10.129Z,41.83
2023-12-05T11:10:38.023Z,41.46
2023-12-05T11:13:05.830Z,41.42
2023-12-05T11:15:36.413Z,41.25
2023-12-05T11:18:46.230Z,41.04
2023-12-05T11:21:22.875Z,40.84
2023-12-05T11:24:05.972Z,40.63
2023-12-05T11:27:18.772Z,40.65
2023-12-05T11:30:12.864Z,40.59
2023-12-05T11:32:44.563Z,40.47
2023-12-05T11:35:13.743Z,40.50
2023-12-05T11:38:13.821Z,40.40
2023-12-05T11:40:42.172Z,40.51
2023-12-05T11:43:13.852Z,40.64
2023-12-05T11:45:42.834Z,40.94
2023-12-05T11:48:12.388Z,41.47
2023-12-05T11:50:44.590Z,41.06
2023-12-05T11:53:16.593Z,41.14
2023-12-05T11:55:47.402Z,40.82
2023-12-05T11:58:34.857Z,41.04
2023-12-05T12:01:04.636Z,40.97
2023-12-05T12:03:49.006Z,40.36
2023-12-05T12:06:24.730Z,40.14
2023-12-05T12:08:55.631Z,40.09
2023-12-05T12:11:23.947Z,39.69
2023-12-05T12:13:51.787Z,39.43
2023-12-05T12:16:20.533Z,39.35
2023-12-05T12:18:53.760Z,39.20
2023-12-05T12:21:32.671Z,39.08
2023-12-05T12:24:00.755Z,39.18
2023-12-05T12:26:33.660Z,38.96
2023-12-05T12:29:09.148Z,38.96
2023-12-05T12:31:37.003Z,39.11
2023-12-05T12:34:07.250Z,39.19
2023-12-05T12:36:36.354Z,38.83
2023-12-05T12:39:04.199Z,38.90
2023-12-05T12:41:32.113Z,39.01
2023-12-05T12:44:00.045Z,38.98
2023-12-05T12:46:27.690Z,38.77
2023-12-05T12:48:58.066Z,38.90
2023-12-05T12:51:25.893Z,38.85
2023-12-05T12:53:54.069Z,38.55
2023-12-05T12:56:22.289Z,38.41
2023-12-05T12:58:50.471Z,38.69
2023-12-05T13:01:19.271Z,38.93
2023-12-05T13:03:47.309Z,39.35
2023-12-05T13:06:17.654Z,39.48
2023-12-05T13:08:45.652Z,39.57
2023-12-05T13:11:13.598Z,40.08
2023-12-05T13:13:41.225Z,39.87
2023-12-05T13:16:10.252Z,40.20
2023-12-05T13:18:47.110Z,39.79
2023-12-05T13:21:19.095Z,39.89
2023-12-05T13:23:46.979Z,39.71
2023-12-05T13:26:14.747Z,38.92
2023-12-05T13:28:43.130Z,39.17
2023-12-05T13:31:10.934Z,39.11
2023-12-05T13:33:39.208Z,38.65
2023-12-05T13:36:07.858Z,38.77
2023-12-05T13:38:35.618Z,38.79
2023-12-05T13:41:03.375Z,39.26
2023-12-05T13:43:31.140Z,39.33
2023-12-05T13:45:59.248Z,39.52
2023-12-05T13:48:27.131Z,39.52
2023-12-05T13:50:54.949Z,39.42
2023-12-05T13:53:24.860Z,39.63
2023-12-05T13:55:52.719Z,39.24
2023-12-05T13:58:20.793Z,39.02
2023-12-05T14:00:48.796Z,38.64
2023-12-05T14:03:16.794Z,38.69
2023-12-05T14:05:44.595Z,39.08
2023-12-05T14:08:12.572Z,39.29
2023-12-05T14:10:40.638Z,39.25
2023-12-05T14:13:08.333Z,39.61
2023-12-05T14:15:36.131Z,39.99
2023-12-05T14:18:04.505Z,39.90
2023-12-05T14:20:32.302Z,39.93
2023-12-05T14:23:00.090Z,40.06
2023-12-05T14:25:28.152Z,40.23
2023-12-05T14:27:56.031Z,40.25
2023-12-05T14:30:23.827Z,40.14
2023-12-05T14:32:51.932Z,40.28
2023-12-05T14:35:22.229Z,40.63
2023-12-05T14:37:50.034Z,40.61
2023-12-05T14:40:17.969Z,41.02
2023-12-05T14:42:45.914Z,41.28
2023-12-05T14:45:13.905Z,41.60
2023-12-05T14:47:42.029Z,41.15
2023-12-05T14:50:10.350Z,40.65
2023-12-05T14:52:38.957Z,40.50
2023-12-05T14:55:07.353Z,40.46
2023-12-05T14:57:35.223Z,41.07
2023-12-05T15:00:04.174Z,41.47
2023-12-05T15:02:31.921Z,41.59
2023-12-05T15:04:59.697Z,41.98
2023-12-05T15:07:27.510Z,42.45
2023-12-05T15:09:55.334Z,42.50
2023-12-05T15:12:23.733Z,42.55
2023-12-05T15:14:51.603Z,42.55
2023-12-05T15:17:20.073Z,42.65
2023-12-05T15:20:17.803Z,42.47
2023-12-05T15:22:35.909Z,42.62
2023-12-05T15:25:05.739Z,42.79
2023-12-05T15:27:35.041Z,42.44
2023-12-05T15:30:04.611Z,42.56
2023-12-05T15:32:32.406Z,42.40
2023-12-05T15:35:00.360Z,42.52
2023-12-05T15:37:29.451Z,42.61
2023-12-05T15:39:57.230Z,42.73
2023-12-05T15:42:25.044Z,42.63
2023-12-05T15:44:52.826Z,42.74
2023-12-05T15:47:21.110Z,42.83
2023-12-05T15:49:49.405Z,42.85
2023-12-05T15:52:17.750Z,42.85
2023-12-05T15:54:45.437Z,42.80
2023-12-05T15:57:13.076Z,42.90
2023-12-05T15:59:40.956Z,43.03
2023-12-05T16:02:08.767Z,42.95
2023-12-05T16:04:36.591Z,42.91
2023-12-05T16:07:06.003Z,42.80
2023-12-05T16:09:34.090Z,42.96
2023-12-05T16:12:02.216Z,42.97
2023-12-05T16:14:32.659Z,43.10
2023-12-05T16:17:00.822Z,43.08
2023-12-05T16:19:28.578Z,43.13
2023-12-05T16:21:56.477Z,43.12
2023-12-05T16:24:24.479Z,42.97
2023-12-05T16:26:52.996Z,43.00
2023-12-05T16:29:21.625Z,43.08
2023-12-05T16:31:51.093Z,43.23
2023-12-05T16:34:18.936Z,43.44
2023-12-05T16:36:46.988Z,43.57
2023-12-05T16:39:16.073Z,43.69
2023-12-05T16:41:43.994Z,43.88
2023-12-05T16:44:11.746Z,44.05
2023-12-05T16:46:39.414Z,44.16
2023-12-05T16:49:07.582Z,44.34
2023-12-05T16:51:35.481Z,44.30
2023-12-05T16:54:03.217Z,44.42
2023-12-05T16:56:31.001Z,44.61
2023-12-05T16:58:58.743Z,44.86
2023-12-05T17:01:26.653Z,45.04
2023-12-05T17:03:54.674Z,45.34
2023-12-05T17:06:22.551Z,45.48
2023-12-05T17:08:50.205Z,45.60
2023-12-05T17:11:18.035Z,45.95
2023-12-05T17:13:46.249Z,46.10
2023-12-05T17:16:14.332Z,46.19
2023-12-05T17:18:43.064Z,46.30
2023-12-05T17:21:10.869Z,46.26
2023-12-05T17:23:38.653Z,46.53
2023-12-05T17:26:09.573Z,46.80
2023-12-05T17:28:37.344Z,46.82
2023-12-05T17:31:06.374Z,47.06
2023-12-05T17:33:34.225Z,47.19
2023-12-05T17:36:02.065Z,47.36
2023-12-05T17:38:30.028Z,47.39
2023-12-05T17:40:58.607Z,47.60
2023-12-05T17:43:26.984Z,47.98
2023-12-05T17:45:57.692Z,48.05
2023-12-05T17:48:28.145Z,48.27
2023-12-05T17:50:56.139Z,48.17
2023-12-05T17:53:24.689Z,48.34
2023-12-05T17:55:52.442Z,48.43
2023-12-05T17:58:20.200Z,48.63
2023-12-05T18:00:48.236Z,48.84
2023-12-05T18:03:16.293Z,48.93
2023-12-05T18:05:44.143Z,49.03
2023-12-05T18:08:12.165Z,49.22
2023-12-05T18:10:41.034Z,49.47
2023-12-05T18:13:08.967Z,49.48
2023-12-05T18:15:37.227Z,49.58
2023-12-05T18:18:05.799Z,49.85
2023-12-05T18:20:33.596Z,49.97
2023-12-05T18:23:01.261Z,50.31
2023-12-05T18:25:28.943Z,50.41
2023-12-05T18:27:56.970Z,50.56
2023-12-05T18:30:25.662Z,50.66
2023-12-05T18:32:53.513Z,50.67
2023-12-05T18:35:21.395Z,50.74
2023-12-05T18:37:49.463Z,50.93
2023-12-05T18:40:17.961Z,50.96
2023-12-05T18:42:45.827Z,51.10
2023-12-05T18:45:13.573Z,51.23
2023-12-05T18:47:41.263Z,51.34
2023-12-05T18:50:09.818Z,51.57
2023-12-05T18:52:38.187Z,51.54
2023-12-05T18:55:07.423Z,51.64
2023-12-05T18:57:35.442Z,51.76
2023-12-05T19:00:03.633Z,51.83
2023-12-05T19:02:31.405Z,52.06
2023-12-05T19:04:59.393Z,52.26
2023-12-05T19:10:51.329Z,52.73
2023-12-05T19:13:18.974Z,52.90
2023-12-05T19:15:46.758Z,53.03
2023-12-05T19:18:15.646Z,53.21
2023-12-05T19:20:43.495Z,53.46
2023-12-05T19:23:11.474Z,53.59
2023-12-05T19:25:40.145Z,53.69
2023-12-05T19:28:08.781Z,53.57
2023-12-05T19:30:41.680Z,53.62
2023-12-05T19:33:14.804Z,53.58
2023-12-05T19:35:44.970Z,53.62
2023-12-05T19:38:12.894Z,53.75
2023-12-05T19:40:40.634Z,53.71
2023-12-05T19:43:09.503Z,53.83
2023-12-05T19:45:37.335Z,53.78
2023-12-05T19:48:05.553Z,53.71
2023-12-05T19:50:33.578Z,53.63
2023-12-05T19:53:01.527Z,53.66
2023-12-05T19:55:29.185Z,53.63
2023-12-05T19:57:57.183Z,53.59
2023-12-05T20:00:25.941Z,53.40
2023-12-05T20:02:53.835Z,53.31
2023-12-05T20:05:21.800Z,53.23
2023-12-05T20:07:50.277Z,53.34
2023-12-05T20:10:18.204Z,53.21
2023-12-05T20:12:46.186Z,53.22
2023-12-05T20:15:14.332Z,53.10
2023-12-05T20:17:42.390Z,53.04
2023-12-05T20:20:10.851Z,53.14
2023-12-05T20:22:38.703Z,53.13
2023-12-05T20:25:07.249Z,53.03
2023-12-05T20:27:36.600Z,53.01
2023-12-05T20:30:04.940Z,53.09
2023-12-05T20:32:32.610Z,53.14
2023-12-05T20:35:00.423Z,52.88
2023-12-05T20:37:28.245Z,52.79
2023-12-05T20:39:56.108Z,52.85
2023-12-05T20:42:27.782Z,52.82
2023-12-05T20:44:55.717Z,52.73
2023-12-05T20:47:23.485Z,52.86
2023-12-05T20:49:51.212Z,52.79
2023-12-05T20:52:19.578Z,52.85
2023-12-05T20:54:47.444Z,53.05
2023-12-05T20:57:15.665Z,53.23
2023-12-05T20:59:43.437Z,53.19
2023-12-05T21:02:11.120Z,53.23
2023-12-05T21:04:39.306Z,53.19
2023-12-05T21:07:07.159Z,53.29
2023-12-05T21:09:34.864Z,53.17
2023-12-05T21:12:02.605Z,52.97
2023-12-05T21:14:30.174Z,53.06
2023-12-05T21:16:58.469Z,53.03
2023-12-05T21:19:26.045Z,52.86
2023-12-05T21:21:53.846Z,52.85
2023-12-05T21:24:21.532Z,52.86
2023-12-05T21:26:49.526Z,52.78
2023-12-05T21:29:17.323Z,52.65
2023-12-05T21:31:44.948Z,52.60
2023-12-05T21:34:12.636Z,52.51
2023-12-05T21:36:40.446Z,52.52
2023-12-05T21:39:08.468Z,52.58
2023-12-05T21:41:36.152Z,52.62
2023-12-05T21:44:04.254Z,52.70
2023-12-05T21:46:32.792Z,52.58
2023-12-05T21:49:01.270Z,52.43
2023-12-05T21:51:29.981Z,52.52
2023-12-05T21:54:01.014Z,52.69
2023-12-05T21:56:30.207Z,52.76
2023-12-05T21:58:57.755Z,52.65
2023-12-05T22:01:26.547Z,52.61
2023-12-05T22:03:54.232Z,52.65
2023-12-05T22:06:22.119Z,52.65
2023-12-05T22:08:49.643Z,52.61
2023-12-05T22:11:17.485Z,52.67
2023-12-05T22:13:47.115Z,52.79
2023-12-05T22:16:15.212Z,52.86
2023-12-05T22:18:45.822Z,52.90
2023-12-05T22:21:13.922Z,52.79
2023-12-05T22:23:42.289Z,52.89
2023-12-05T22:26:10.368Z,53.11
2023-12-05T22:28:38.005Z,53.29
2023-12-05T22:31:06.378Z,53.41
2023-12-05T22:33:34.410Z,53.39
2023-12-05T22:36:02.186Z,53.25
2023-12-05T22:38:29.800Z,53.34
2023-12-05T22:40:57.361Z,53.45
2023-12-05T22:43:25.020Z,53.31
2023-12-05T22:45:52.590Z,53.32
2023-12-05T22:48:20.245Z,53.50
2023-12-05T22:50:48.080Z,53.46
2023-12-05T22:53:15.614Z,53.57
2023-12-05T22:55:43.397Z,53.41
2023-12-05T22:58:12.055Z,53.35
2023-12-05T23:00:40.781Z,53.25
2023-12-05T23:03:08.568Z,53.23
2023-12-05T23:05:37.301Z,53.15
2023-12-05T23:08:05.183Z,53.04
2023-12-05T23:10:33.882Z,52.82
2023-12-05T23:13:01.739Z,52.72
2023-12-05T23:15:30.586Z,52.76
2023-12-05T23:17:58.806Z,52.26
2023-12-05T23:20:26.564Z,51.98
2023-12-05T23:22:54.884Z,51.81
2023-12-05T23:25:22.454Z,51.73
2023-12-05T23:27:51.006Z,51.57
2023-12-05T23:30:18.636Z,51.39
2023-12-05T23:32:46.386Z,51.19
2023-12-05T23:35:14.786Z,50.91
2023-12-05T23:37:42.568Z,50.95
2023-12-05T23:40:10.694Z,50.80
2023-12-05T23:42:38.402Z,50.78
2023-12-05T23:45:06.389Z,50.65
2023-12-05T23:47:33.988Z,50.36
2023-12-05T23:50:01.557Z,50.44
2023-12-05T23:52:29.187Z,50.03
2023-12-05T23:54:57.635Z,49.83
2023-12-05T23:57:25.569Z,49.91
2023-12-05T23:59:53.197Z,49.65
